Morris, IL (60450)

7:07 AM CDT on August 20, 2019 (GMT -0500)
savvyweather | | Change Station
Active Advisory: Severe Thunderstorm Watch

Elev 547 ft 41.36 °N, 88.44 °W | Updated 7 seconds ago

Clear
Clear
72.5 °F
Feels Like 72.5 °F
N
0
Wind Variable Wind from East
Gusts 2.5 mph

Today
High -- | Low -- °F
--% Chance of Precip.
Yesterday
High -- | Low -- °F
Precip. -- in
Pressure 29.98 in
Visibility 3.0 miles
Clouds Clear
Dew Point 71 °F
Humidity 96%
Rainfall 0.00 in
Snow Depth Not available.
6:07 AM 7:45 PM
Waning Gibbous, 79% visible
METAR KC09 201135Z AUTO 00000KT 3SM BR CLR 21/21 A2998 RMK AO2 LTG DSNT W T02110210
Pressure 29.98 in
Visibility 3.0 miles
Clouds Clear
Dew Point 71 °F
Humidity 96%
Rainfall 0.00 in
Snow Depth Not available.
6:07 AM 7:45 PM
Waning Gibbous, 79% visible
METAR KC09 201135Z AUTO 00000KT 3SM BR CLR 21/21 A2998 RMK AO2 LTG DSNT W T02110210

Get Your Daily Forecast Email!

Thanks for signing up!

Be on the lookout for a verification email in your inbox.

You'll start receiving severe weather alerts in your inbox..

×

10-Day Weather Forecast

Almanac

Astronomy

Aug. 20, 2019 Rise Set
Actual Time
Civil Twilight
Nautical Twilight
Astronomical Twilight
Moon
Length of Visible Light
Length of Day
Tomorrow will be .
, % of the Moon is Illuminated

Today's Extremes

State Highs State Lows

Community

WunderPhotos

Category 6

Welcome to Category 6. This is the collective home for Weather Underground's featured writeups by Dr. Jeff Masters (right), Bob Henson (left), Chris Burt, and other regular contributors.

Nearby

Air Quality

  Air Quality AQ Index Pollutant
Not available.

Snow Depth

Station Depth Elevation

Earthquake Activity

City Distance Mag. Time & Date
Minimum magnitude displayed is 2.5.

Coastal Water Temperatures

Place Temperature

Stations

Nearby Weather Stations

Station Location Temp. Windchill Dew Point Humidity Wind Precip. Elev Updated Type
                   

Watches & Warnings

Severe Thunderstorm Watch
Issued: 6:43 AM CDT Aug. 20, 2019 – National Weather Service

Severe Thunderstorm Watch 602 remains in effect until 300 PM CDT

IL
. Illinois counties included are

Adams Bond Brown
Bureau Calhoun Carroll
Cass Champaign Christian
Clinton Coles Cumberland
De Kalb De Witt Douglas
Edgar Effingham Fayette
Ford Fulton Greene
Grundy Hancock Henderson
Henry Iroquois Jersey
Kane Kankakee Kendall
Knox La Salle Lee
Livingston Logan McDonough
McLean Macon Macoupin
Madison Marion Marshall
Mason Menard Mercer
Monroe Montgomery Morgan
Moultrie Ogle Peoria
Piatt Pike Putnam
Rock Island St. Clair Sangamon
Schuyler Scott Shelby
Stark Tazewell Vermilion
Warren Washington Whiteside
will Woodford